Terminal Aerodrome Forecast
Issued by NWS

Home | Current Version | Previous Version | Text Only | Print | Product List | Glossary On
Versions: 1 2 3 4 5 6 7 8 9 10 11 12
000
FTUS43 KDDC 241720
TAFGCK
TAF
KGCK 241720Z 2418/2518 31016G25KT P6SM BKN012
     FM242100 33018G26KT P6SM SCT100
     FM250000 34017G24KT P6SM FEW130=

USA.gov is the U.S. government's official web portal to all federal, state and local government web resources and services.